Time;durP1;ratioP1;P1;durP2;ratioP2;P2;SDS_P1;SDS_P2;PMS_P1;PMS_P2;Temp;Humidity;BMP_temperature;BMP_pressure;BME280_temperature;BME280_humidity;BME280_pressure;Samples;Min_cycle;Max_cycle;Signal;HPM_P1;HPM_P2
2022/01/18 00:01:16;;;;;;;23.27;14.70;;;;;;;-141.59;100.00;61776.25;4929418;29;20210;-83
2022/01/18 00:03:44;;;;;;;24.00;14.90;;;;;;;-141.59;100.00;61776.25;4928671;29;20297;-84
2022/01/18 00:06:11;;;;;;;23.63;14.83;;;;;;;-141.59;100.00;61776.25;4927017;29;20316;-83
2022/01/18 00:08:38;;;;;;;24.10;14.93;;;;;;;-141.59;100.00;61776.25;4942591;28;20567;-83
2022/01/18 00:11:06;;;;;;;25.03;15.97;;;;;;;-141.59;100.00;61776.25;4945052;28;20307;-83
2022/01/18 00:13:41;;;;;;;24.57;15.17;;;;;;;-141.59;100.00;61776.25;4939050;28;20277;-83
2022/01/18 00:16:27;;;;;;;25.43;14.43;;;;;;;-141.59;100.00;61776.25;4963802;28;20307;-84
2022/01/18 00:18:55;;;;;;;21.67;13.23;;;;;;;-141.59;100.00;61776.25;4949063;28;20213;-84
2022/01/18 00:21:30;;;;;;;21.07;13.23;;;;;;;-141.59;100.00;61776.25;4947204;29;20304;-83
2022/01/18 00:23:58;;;;;;;19.40;13.30;;;;;;;-141.59;100.00;61776.25;4958852;28;20341;-84
2022/01/18 00:26:29;;;;;;;26.50;14.77;;;;;;;-141.59;100.00;61776.25;4939886;29;20210;-84
2022/01/18 00:29:03;;;;;;;21.97;13.37;;;;;;;-141.59;100.00;61776.25;4947518;28;20216;-83
2022/01/18 00:34:23;;;;;;;19.47;12.37;;;;;;;-141.59;100.00;61776.25;4965039;28;20216;-83
2022/01/18 00:37:12;;;;;;;20.23;12.97;;;;;;;-141.59;100.00;61776.25;4946258;29;20217;-84
2022/01/18 00:39:40;;;;;;;20.67;12.40;;;;;;;-141.59;100.00;61776.25;4961779;28;20214;-84
2022/01/18 00:42:08;;;;;;;18.93;11.73;;;;;;;-141.59;100.00;61776.25;4946398;28;20213;-84
2022/01/18 00:44:37;;;;;;;19.07;11.10;;;;;;;-141.59;100.00;61776.25;4937384;28;20233;-84
2022/01/18 00:47:05;;;;;;;19.20;11.63;;;;;;;-141.59;100.00;61776.25;4960404;28;20284;-85
2022/01/18 00:49:39;;;;;;;16.50;10.23;;;;;;;-141.59;100.00;61776.25;4945833;28;20206;-84
2022/01/18 00:52:07;;;;;;;21.93;11.97;;;;;;;-141.59;100.00;61776.25;4944389;28;20296;-85
2022/01/18 00:54:39;;;;;;;19.47;12.03;;;;;;;-141.59;100.00;61776.25;4939472;28;20206;-85
2022/01/18 00:57:07;;;;;;;21.13;13.03;;;;;;;-141.59;100.00;61776.25;4947565;28;20213;-84
2022/01/18 00:59:34;;;;;;;20.37;12.20;;;;;;;-141.59;100.00;61776.25;4952264;28;20193;-84
2022/01/18 01:02:03;;;;;;;20.77;12.50;;;;;;;-141.59;100.00;61776.25;4945168;28;20304;-84
2022/01/18 01:04:34;;;;;;;18.83;10.97;;;;;;;-141.59;100.00;61776.25;4941074;29;20214;-84
2022/01/18 01:07:01;;;;;;;17.33;9.67;;;;;;;-141.59;100.00;61776.25;4941916;29;20249;-84
2022/01/18 01:09:28;;;;;;;14.57;9.83;;;;;;;-141.59;100.00;61776.25;4926434;29;20246;-84
2022/01/18 01:11:56;;;;;;;15.03;9.30;;;;;;;-141.59;100.00;61776.25;4940992;29;20350;-84
2022/01/18 01:14:25;;;;;;;16.00;9.00;;;;;;;-141.59;100.00;61776.25;4922500;29;20213;-83
2022/01/18 01:34:10;;;;;;;19.40;11.80;;;;;;;-141.59;100.00;61776.25;4927048;29;20325;-85
2022/01/18 01:37:00;;;;;;;15.10;9.87;;;;;;;-141.59;100.00;61776.25;4916877;29;20224;-83
2022/01/18 01:42:31;;;;;;;16.87;10.03;;;;;;;-141.59;100.00;61776.25;4908722;29;20233;-84
2022/01/18 01:45:01;;;;;;;15.07;10.30;;;;;;;-141.59;100.00;61776.25;4925352;29;20308;-84
2022/01/18 01:47:34;;;;;;;18.13;10.47;;;;;;;-141.59;100.00;61776.25;4937001;29;20234;-83
2022/01/18 01:50:04;;;;;;;15.83;9.87;;;;;;;-141.59;100.00;61776.25;4926538;29;20319;-83
2022/01/18 01:52:32;;;;;;;16.20;10.07;;;;;;;-141.59;100.00;61776.25;4920394;29;20252;-85
2022/01/18 01:55:00;;;;;;;16.97;10.47;;;;;;;-141.59;100.00;61776.25;4926143;29;20233;-84
2022/01/18 01:57:27;;;;;;;15.47;9.50;;;;;;;-141.59;100.00;61776.25;4915042;29;20207;-84
2022/01/18 01:59:57;;;;;;;20.03;12.23;;;;;;;-141.59;100.00;61776.25;4927613;29;20240;-85
2022/01/18 02:02:25;;;;;;;19.37;10.73;;;;;;;-141.59;100.00;61776.25;4927180;29;20206;-85
2022/01/18 02:04:52;;;;;;;17.90;10.60;;;;;;;-141.59;100.00;61776.25;4922232;29;20207;-85
2022/01/18 02:07:19;;;;;;;19.87;11.87;;;;;;;-141.59;100.00;61776.25;4929620;28;20265;-84
2022/01/18 02:09:48;;;;;;;19.07;11.80;;;;;;;-141.59;100.00;61776.25;4954765;28;20289;-84
2022/01/18 02:12:18;;;;;;;18.00;11.00;;;;;;;-141.59;100.00;61776.25;4951578;28;20209;-84
2022/01/18 02:14:50;;;;;;;19.00;10.87;;;;;;;-141.59;100.00;61776.25;4958979;28;20205;-85
2022/01/18 02:22:49;;;;;;;16.57;9.77;;;;;;;-141.59;100.00;61776.25;4946710;28;20213;-84
2022/01/18 02:25:17;;;;;;;16.73;10.37;;;;;;;-141.59;100.00;61776.25;4950309;28;20205;-85
2022/01/18 02:27:44;;;;;;;19.30;10.23;;;;;;;-141.59;100.00;61776.25;4964710;28;20197;-85
2022/01/18 02:30:12;;;;;;;15.77;9.33;;;;;;;-141.59;100.00;61776.25;4942212;28;20207;-85
2022/01/18 02:32:39;;;;;;;17.83;9.67;;;;;;;-141.59;100.00;61776.25;4962741;28;20355;-84
2022/01/18 02:35:09;;;;;;;16.57;9.90;;;;;;;-141.59;100.00;61776.25;4945475;28;20203;-84
2022/01/18 02:37:36;;;;;;;15.97;9.10;;;;;;;-141.59;100.00;61776.25;4964938;28;20201;-84
2022/01/18 02:40:04;;;;;;;14.80;9.23;;;;;;;-141.59;100.00;61776.25;4962932;28;20221;-83
2022/01/18 02:42:40;;;;;;;14.53;8.97;;;;;;;-141.59;100.00;61776.25;4949967;28;20537;-83
2022/01/18 02:45:08;;;;;;;14.57;9.40;;;;;;;-141.59;100.00;61776.25;4947974;28;20235;-84
2022/01/18 02:47:35;;;;;;;16.50;9.80;;;;;;;-141.59;100.00;61776.25;4942277;28;20303;-84
2022/01/18 02:50:03;;;;;;;19.37;10.40;;;;;;;-141.59;100.00;61776.25;4947031;28;20216;-84
2022/01/18 02:52:31;;;;;;;14.77;9.10;;;;;;;-141.59;100.00;61776.25;4956015;28;20604;-84
2022/01/18 02:54:58;;;;;;;16.43;9.03;;;;;;;-141.59;100.00;61776.25;4961464;28;20228;-84
2022/01/18 02:57:26;;;;;;;16.80;8.97;;;;;;;-141.59;100.00;61776.25;4958991;28;20210;-84
2022/01/18 03:00:07;;;;;;;14.10;8.53;;;;;;;-141.59;100.00;61776.25;4946936;28;20256;-85
2022/01/18 03:05:17;;;;;;;12.23;7.50;;;;;;;-141.59;100.00;61776.25;4946547;28;20212;-83
2022/01/18 03:07:46;;;;;;;14.20;8.47;;;;;;;-141.59;100.00;61776.25;4947508;28;20236;-84
2022/01/18 03:10:14;;;;;;;15.00;9.10;;;;;;;-141.59;100.00;61776.25;4948859;28;20212;-84
2022/01/18 03:12:41;;;;;;;12.90;8.23;;;;;;;-141.59;100.00;61776.25;4936679;28;20237;-83
2022/01/18 03:15:09;;;;;;;12.67;8.10;;;;;;;-141.59;100.00;61776.25;4956473;28;20204;-84
2022/01/18 03:17:36;;;;;;;15.77;8.40;;;;;;;-141.59;100.00;61776.25;4946575;28;20271;-84
2022/01/18 03:20:05;;;;;;;14.07;8.87;;;;;;;-141.59;100.00;61776.25;4960136;28;20208;-84
2022/01/18 03:22:32;;;;;;;15.67;9.00;;;;;;;-141.59;100.00;61776.25;4944950;28;20213;-84
2022/01/18 03:25:12;;;;;;;14.13;8.77;;;;;;;-141.59;100.00;61776.25;4948984;28;20215;-85
2022/01/18 03:30:24;;;;;;;12.43;8.20;;;;;;;-141.59;100.00;61776.25;4947003;28;20205;-83
2022/01/18 03:32:51;;;;;;;11.20;7.63;;;;;;;-141.59;100.00;61776.25;4950753;28;20272;-84
2022/01/18 03:35:18;;;;;;;13.03;7.73;;;;;;;-141.59;100.00;61776.25;4950490;28;20235;-83
2022/01/18 03:37:45;;;;;;;15.83;10.10;;;;;;;-141.59;100.00;61776.25;4951518;28;20246;-84
2022/01/18 03:40:14;;;;;;;17.30;9.33;;;;;;;-141.59;100.00;61776.25;4952037;28;20273;-84
2022/01/18 03:42:42;;;;;;;15.43;9.37;;;;;;;-141.59;100.00;61776.25;4952325;28;20267;-84
2022/01/18 03:45:13;;;;;;;16.70;8.97;;;;;;;-141.59;100.00;61776.25;4950600;28;20213;-84
2022/01/18 03:47:41;;;;;;;15.77;9.23;;;;;;;-141.59;100.00;61776.25;4952395;28;20201;-83
2022/01/18 03:50:11;;;;;;;12.97;8.60;;;;;;;-141.59;100.00;61776.25;4963790;28;20223;-84
2022/01/18 03:52:40;;;;;;;14.63;8.83;;;;;;;-141.59;100.00;61776.25;4947334;28;20303;-84
2022/01/18 03:55:10;;;;;;;14.50;8.57;;;;;;;-141.59;100.00;61776.25;4956396;28;20206;-83
2022/01/18 03:57:38;;;;;;;13.50;8.40;;;;;;;-141.59;100.00;61776.25;4949842;28;20222;-84
2022/01/18 04:00:08;;;;;;;12.53;8.07;;;;;;;-141.59;100.00;61776.25;4951136;28;20296;-84
2022/01/18 04:02:39;;;;;;;12.07;7.20;;;;;;;-141.59;100.00;61776.25;4965340;28;20201;-84
2022/01/18 04:05:07;;;;;;;11.70;7.60;;;;;;;-141.59;100.00;61776.25;4949941;28;20213;-84
2022/01/18 04:07:34;;;;;;;10.17;6.80;;;;;;;-141.59;100.00;61776.25;4955242;28;20565;-85
2022/01/18 04:10:01;;;;;;;10.97;6.80;;;;;;;-141.59;100.00;61776.25;4950114;28;20233;-83
2022/01/18 04:12:28;;;;;;;12.43;7.33;;;;;;;-141.59;100.00;61776.25;4952060;28;20291;-84
2022/01/18 04:14:59;;;;;;;13.57;8.40;;;;;;;-141.59;100.00;61776.25;4950731;28;20240;-84
2022/01/18 04:17:48;;;;;;;12.67;7.93;;;;;;;-141.59;100.00;61776.25;4951111;28;20208;-84
2022/01/18 04:26:01;;;;;;;11.20;7.50;;;;;;;-141.59;100.00;61776.25;4956240;28;20574;-83
2022/01/18 04:28:35;;;;;;;11.40;7.57;;;;;;;-141.59;100.00;61776.25;4953784;28;20213;-84
2022/01/18 04:31:06;;;;;;;12.63;7.90;;;;;;;-141.59;100.00;61776.25;4960681;28;20209;-83
2022/01/18 04:33:34;;;;;;;13.67;7.13;;;;;;;-141.59;100.00;61776.25;4947626;28;20252;-84
2022/01/18 04:36:01;;;;;;;15.43;8.30;;;;;;;-141.59;100.00;61776.25;4949374;28;20212;-84
2022/01/18 04:38:28;;;;;;;18.47;8.87;;;;;;;-141.59;100.00;61776.25;4950944;28;20201;-83
2022/01/18 04:41:00;;;;;;;11.27;7.43;;;;;;;-141.59;100.00;61776.25;4952993;28;20300;-84
2022/01/18 04:43:42;;;;;;;10.80;6.57;;;;;;;-141.59;100.00;61776.25;4943881;28;20209;-84
2022/01/18 04:48:55;;;;;;;11.00;6.80;;;;;;;-141.59;100.00;61776.25;4965003;28;20303;-83
2022/01/18 04:51:22;;;;;;;13.23;7.13;;;;;;;-141.59;100.00;61776.25;4947639;28;20228;-84
2022/01/18 04:53:54;;;;;;;11.10;6.73;;;;;;;-141.59;100.00;61776.25;4950881;28;20291;-84
2022/01/18 04:56:29;;;;;;;9.93;6.40;;;;;;;-141.59;100.00;61776.25;4954849;28;20307;-85
2022/01/18 04:58:57;;;;;;;17.13;9.00;;;;;;;-141.59;100.00;61776.25;4960654;28;20232;-84
2022/01/18 05:01:25;;;;;;;18.20;9.10;;;;;;;-141.59;100.00;61776.25;4949782;28;20284;-83
2022/01/18 05:03:52;;;;;;;13.30;7.67;;;;;;;-141.59;100.00;61776.25;4945725;28;20202;-83
2022/01/18 05:06:20;;;;;;;13.73;7.17;;;;;;;-141.59;100.00;61776.25;4949726;28;20236;-84
2022/01/18 05:08:47;;;;;;;11.73;7.57;;;;;;;-141.59;100.00;61776.25;4949115;28;20256;-84
2022/01/18 05:11:18;;;;;;;8.93;5.70;;;;;;;-141.59;100.00;61776.25;4948160;28;20259;-85
2022/01/18 05:14:03;;;;;;;9.20;6.07;;;;;;;-141.59;100.00;61776.25;4951954;28;20234;-84
2022/01/18 05:16:50;;;;;;;9.03;5.87;;;;;;;-141.59;100.00;61776.25;4938331;28;20217;-84
2022/01/18 05:19:25;;;;;;;13.93;7.57;;;;;;;-141.59;100.00;61776.25;4942714;28;20212;-82
2022/01/18 05:24:42;;;;;;;9.00;6.03;;;;;;;-141.59;100.00;61776.25;4880352;28;20409;-83
2022/01/18 05:27:09;;;;;;;13.20;6.70;;;;;;;-141.59;100.00;61776.25;4941193;28;20196;-83
2022/01/18 05:29:36;;;;;;;10.43;6.67;;;;;;;-141.59;100.00;61776.25;4945940;28;20217;-85
2022/01/18 05:32:05;;;;;;;9.63;6.13;;;;;;;-141.59;100.00;61776.25;4947743;28;20235;-83
2022/01/18 05:34:35;;;;;;;11.03;6.40;;;;;;;-141.59;100.00;61776.25;4960274;28;20228;-82
2022/01/18 05:37:03;;;;;;;11.83;6.50;;;;;;;-141.59;100.00;61776.25;4950894;28;20213;-84
2022/01/18 05:39:30;;;;;;;10.17;6.37;;;;;;;-141.59;100.00;61776.25;4964117;28;20240;-83
2022/01/18 05:41:57;;;;;;;9.83;5.77;;;;;;;-141.59;100.00;61776.25;4958269;28;20206;-84
2022/01/18 05:44:25;;;;;;;8.20;5.90;;;;;;;-141.59;100.00;61776.25;4949138;28;20213;-84
2022/01/18 05:46:52;;;;;;;10.97;6.03;;;;;;;-141.59;100.00;61776.25;4940453;28;20240;-84
2022/01/18 05:49:21;;;;;;;7.70;5.40;;;;;;;-141.59;100.00;61776.25;4946088;28;20207;-84
2022/01/18 05:51:48;;;;;;;9.77;6.00;;;;;;;-141.59;100.00;61776.25;4944034;28;20365;-83
2022/01/18 05:54:15;;;;;;;10.57;7.03;;;;;;;-141.59;100.00;61776.25;4962074;28;20224;-84
2022/01/18 05:56:42;;;;;;;10.33;6.80;;;;;;;-141.59;100.00;61776.25;4950348;28;20209;-82
2022/01/18 05:59:10;;;;;;;10.63;6.67;;;;;;;-141.59;100.00;61776.25;4943355;28;20251;-83
2022/01/18 06:01:47;;;;;;;9.33;6.53;;;;;;;-141.59;100.00;61776.25;4944896;28;20217;-83
2022/01/18 06:06:49;;;;;;;9.27;6.50;;;;;;;-141.59;100.00;61776.25;4951537;28;20212;-82
2022/01/18 06:07:04;;;;;;;9.33;5.97;;;;;;;-141.59;100.00;61776.25;4942178;28;20529;-83
2022/01/18 06:09:32;;;;;;;13.23;6.33;;;;;;;-141.59;100.00;61776.25;4947784;28;20225;-83
2022/01/18 06:11:59;;;;;;;10.93;6.27;;;;;;;-141.59;100.00;61776.25;4950384;28;20205;-82
2022/01/18 06:14:26;;;;;;;9.10;5.00;;;;;;;-141.59;100.00;61776.25;4948670;28;20224;-82
2022/01/18 06:16:53;;;;;;;11.00;5.73;;;;;;;-141.59;100.00;61776.25;4947492;28;20214;-83
2022/01/18 06:19:20;;;;;;;10.73;6.27;;;;;;;-141.59;100.00;61776.25;4966895;28;20205;-83
2022/01/18 06:21:47;;;;;;;11.77;6.40;;;;;;;-141.59;100.00;61776.25;4946882;28;20304;-83
2022/01/18 06:24:16;;;;;;;11.80;6.60;;;;;;;-141.59;100.00;61776.25;4965144;28;20213;-83
2022/01/18 06:26:43;;;;;;;9.27;5.93;;;;;;;-141.59;100.00;61776.25;4954316;28;20216;-83
2022/01/18 06:29:10;;;;;;;13.27;6.73;;;;;;;-141.59;100.00;61776.25;4946230;28;20220;-83
2022/01/18 06:31:37;;;;;;;11.87;6.87;;;;;;;-141.59;100.00;61776.25;4963101;28;20237;-82
2022/01/18 06:34:06;;;;;;;10.47;6.33;;;;;;;-141.59;100.00;61776.25;4950990;28;20245;-82
2022/01/18 06:36:33;;;;;;;9.77;6.50;;;;;;;-141.59;100.00;61776.25;4941050;28;20507;-83
2022/01/18 06:39:00;;;;;;;12.10;6.63;;;;;;;-141.59;100.00;61776.25;4956526;28;20211;-83
2022/01/18 06:41:28;;;;;;;14.13;6.43;;;;;;;-141.59;100.00;61776.25;4964769;28;20217;-83
2022/01/18 06:43:55;;;;;;;8.80;5.70;;;;;;;-141.59;100.00;61776.25;4948614;28;20283;-84
2022/01/18 06:46:22;;;;;;;10.03;6.00;;;;;;;-141.59;100.00;61776.25;4964235;28;20290;-83
2022/01/18 06:48:49;;;;;;;7.90;5.00;;;;;;;-141.59;100.00;61776.25;4963174;28;20284;-83
2022/01/18 06:51:17;;;;;;;9.30;5.67;;;;;;;-141.59;100.00;61776.25;4947764;28;20277;-83
2022/01/18 06:53:46;;;;;;;8.73;5.13;;;;;;;-141.59;100.00;61776.25;4960356;28;20207;-84
2022/01/18 06:56:15;;;;;;;8.33;5.53;;;;;;;-141.59;100.00;61776.25;4956407;28;20236;-83
2022/01/18 06:58:44;;;;;;;10.33;5.93;;;;;;;-141.59;100.00;61776.25;4944227;28;20220;-83
2022/01/18 07:01:13;;;;;;;7.13;5.00;;;;;;;-141.59;100.00;61776.25;4947863;28;20305;-84
2022/01/18 07:03:41;;;;;;;8.77;5.90;;;;;;;-141.59;100.00;61776.25;4946280;28;20213;-83
2022/01/18 07:06:08;;;;;;;8.07;4.87;;;;;;;-141.59;100.00;61776.25;4962676;28;20228;-83
2022/01/18 07:08:36;;;;;;;9.83;5.17;;;;;;;-141.59;100.00;61776.25;4960269;28;20275;-83
2022/01/18 07:11:04;;;;;;;9.87;4.87;;;;;;;-141.59;100.00;61776.25;4958342;28;20286;-83
2022/01/18 07:13:31;;;;;;;7.40;4.47;;;;;;;-141.59;100.00;61776.25;4943252;28;20201;-83
2022/01/18 07:16:01;;;;;;;7.83;5.10;;;;;;;-141.59;100.00;61776.25;4943533;28;20296;-83
2022/01/18 07:18:29;;;;;;;7.57;4.57;;;;;;;-141.59;100.00;61776.25;4962073;28;20211;-83
2022/01/18 07:20:56;;;;;;;7.50;5.00;;;;;;;-141.59;100.00;61776.25;4946311;28;20287;-84
2022/01/18 07:23:23;;;;;;;8.73;5.10;;;;;;;-141.59;100.00;61776.25;4961915;28;20205;-82
2022/01/18 07:25:52;;;;;;;8.37;4.90;;;;;;;-141.59;100.00;61776.25;4946931;28;20217;-83
2022/01/18 07:28:20;;;;;;;8.97;4.70;;;;;;;-141.59;100.00;61776.25;4950992;28;20213;-84
2022/01/18 07:30:48;;;;;;;11.43;6.00;;;;;;;-141.59;100.00;61776.25;4946287;28;20614;-82
2022/01/18 07:33:19;;;;;;;11.83;6.27;;;;;;;-141.59;100.00;61776.25;4939829;28;20208;-83
2022/01/18 07:35:47;;;;;;;10.83;7.00;;;;;;;-141.59;100.00;61776.25;4947252;28;20321;-82
2022/01/18 07:38:17;;;;;;;11.67;6.77;;;;;;;-141.59;100.00;61776.25;4958219;28;20225;-83
2022/01/18 07:40:49;;;;;;;12.37;7.20;;;;;;;-141.59;100.00;61776.25;4943554;28;20208;-82
2022/01/18 07:43:18;;;;;;;13.57;7.03;;;;;;;-141.59;100.00;61776.25;4961660;28;20221;-83
2022/01/18 07:45:46;;;;;;;10.50;6.43;;;;;;;-141.59;100.00;61776.25;4958187;28;20225;-83
2022/01/18 07:48:13;;;;;;;8.77;6.07;;;;;;;-141.59;100.00;61776.25;4932576;28;20222;-83
2022/01/18 07:50:42;;;;;;;9.73;6.03;;;;;;;-141.59;100.00;61776.25;4963115;28;20201;-83
2022/01/18 07:53:11;;;;;;;9.97;5.80;;;;;;;-141.59;100.00;61776.25;4962790;28;20215;-83
2022/01/18 07:55:38;;;;;;;9.13;5.70;;;;;;;-141.59;100.00;61776.25;4946956;28;20236;-83
2022/01/18 07:58:06;;;;;;;13.00;6.67;;;;;;;-141.59;100.00;61776.25;4949469;28;20209;-83
2022/01/18 08:00:33;;;;;;;9.70;6.13;;;;;;;-141.59;100.00;61776.25;4943683;28;20213;-83
2022/01/18 08:03:00;;;;;;;9.60;5.97;;;;;;;-141.59;100.00;61776.25;4954177;28;20215;-83
2022/01/18 08:05:27;;;;;;;8.47;6.13;;;;;;;-141.59;100.00;61776.25;4938593;28;20212;-83
2022/01/18 08:07:56;;;;;;;9.47;6.07;;;;;;;-141.59;100.00;61776.25;4940784;28;20247;-84
2022/01/18 08:10:30;;;;;;;9.77;5.80;;;;;;;-141.59;100.00;61776.25;4949620;28;20228;-83
2022/01/18 08:12:57;;;;;;;11.80;7.23;;;;;;;-141.59;100.00;61776.25;4946698;28;20213;-83
2022/01/18 08:15:25;;;;;;;9.73;6.00;;;;;;;-141.59;100.00;61776.25;4944124;28;20243;-83
2022/01/18 08:17:54;;;;;;;11.20;7.10;;;;;;;-141.59;100.00;61776.25;4940659;28;20212;-83
2022/01/18 08:20:21;;;;;;;9.53;6.17;;;;;;;-141.59;100.00;61776.25;4938341;28;20209;-82
2022/01/18 08:22:49;;;;;;;12.97;7.07;;;;;;;-141.59;100.00;61776.25;4950177;28;20295;-84
2022/01/18 08:25:18;;;;;;;14.13;7.73;;;;;;;-141.59;100.00;61776.25;4964508;28;20251;-83
2022/01/18 08:27:46;;;;;;;12.60;7.60;;;;;;;-141.59;100.00;61776.25;4947557;28;20206;-83
2022/01/18 08:30:16;;;;;;;12.93;7.13;;;;;;;-141.59;100.00;61776.25;4962576;28;20296;-84
2022/01/18 08:32:44;;;;;;;13.83;7.87;;;;;;;-141.59;100.00;61776.25;4953091;28;20212;-82
2022/01/18 08:35:11;;;;;;;13.73;7.87;;;;;;;-141.59;100.00;61776.25;4964388;28;20240;-82
2022/01/18 08:37:38;;;;;;;14.13;8.37;;;;;;;-141.59;100.00;61776.25;4964346;28;20267;-83
2022/01/18 08:40:06;;;;;;;13.40;7.37;;;;;;;-141.59;100.00;61776.25;4948996;28;20215;-82
2022/01/18 08:42:35;;;;;;;13.47;7.40;;;;;;;-141.59;100.00;61776.25;4948295;28;20205;-83
2022/01/18 08:45:02;;;;;;;14.87;7.60;;;;;;;-141.59;100.00;61776.25;4959046;28;20250;-83
2022/01/18 08:47:30;;;;;;;12.73;7.23;;;;;;;-141.59;100.00;61776.25;4959865;28;20209;-83
2022/01/18 08:49:57;;;;;;;14.60;7.80;;;;;;;-141.59;100.00;61776.25;4943843;28;20210;-83
2022/01/18 08:52:24;;;;;;;11.33;7.73;;;;;;;-141.59;100.00;61776.25;4947796;28;20201;-82
2022/01/18 08:54:51;;;;;;;12.50;7.13;;;;;;;-141.59;100.00;61776.25;4965088;28;20234;-84
2022/01/18 08:57:19;;;;;;;13.33;7.20;;;;;;;-141.59;100.00;61776.25;4950355;28;20216;-81
2022/01/18 08:59:49;;;;;;;12.27;7.37;;;;;;;-141.59;100.00;61776.25;4943488;28;20204;-84
2022/01/18 09:02:17;;;;;;;13.10;8.03;;;;;;;-141.59;100.00;61776.25;4937303;28;20201;-83
2022/01/18 09:04:44;;;;;;;13.10;7.33;;;;;;;-141.59;100.00;61776.25;4940670;28;20250;-82
2022/01/18 09:07:11;;;;;;;12.60;7.57;;;;;;;-141.59;100.00;61776.25;4956351;28;20297;-82
2022/01/18 09:09:41;;;;;;;12.37;7.13;;;;;;;-141.59;100.00;61776.25;4943159;28;20242;-82
2022/01/18 09:12:10;;;;;;;11.17;6.80;;;;;;;-141.59;100.00;61776.25;4946787;28;20281;-84
2022/01/18 09:14:38;;;;;;;13.17;7.90;;;;;;;-141.59;100.00;61776.25;4947338;28;20229;-83
2022/01/18 09:17:07;;;;;;;17.57;8.80;;;;;;;-141.59;100.00;61776.25;4957673;28;20216;-82
2022/01/18 09:19:34;;;;;;;14.50;8.23;;;;;;;-141.59;100.00;61776.25;4942980;28;20214;-83
2022/01/18 09:22:03;;;;;;;12.03;6.47;;;;;;;-141.59;100.00;61776.25;4945929;28;20237;-82
2022/01/18 09:24:30;;;;;;;13.93;8.43;;;;;;;-141.59;100.00;61776.25;4959759;28;20297;-84
2022/01/18 09:26:57;;;;;;;12.80;7.50;;;;;;;-141.59;100.00;61776.25;4949705;28;20206;-83
2022/01/18 09:29:24;;;;;;;11.43;7.03;;;;;;;-141.59;100.00;61776.25;4948125;28;20296;-82
2022/01/18 09:31:52;;;;;;;14.57;8.63;;;;;;;-141.59;100.00;61776.25;4953624;28;20202;-82
2022/01/18 09:34:20;;;;;;;13.60;8.33;;;;;;;-141.59;100.00;61776.25;4947315;29;20217;-83
2022/01/18 09:36:47;;;;;;;10.83;7.90;;;;;;;-141.59;100.00;61776.25;4961975;28;20229;-82
2022/01/18 09:39:15;;;;;;;12.70;7.17;;;;;;;-141.59;100.00;61776.25;4946247;28;20210;-81
2022/01/18 09:41:50;;;;;;;12.07;7.30;;;;;;;-141.59;100.00;61776.25;4948448;28;20210;-82
2022/01/18 09:44:17;;;;;;;12.63;7.50;;;;;;;-141.59;100.00;61776.25;4943500;29;20317;-82
2022/01/18 09:46:45;;;;;;;11.47;6.97;;;;;;;-141.59;100.00;61776.25;4962596;28;20206;-82
2022/01/18 09:49:13;;;;;;;12.47;6.40;;;;;;;-141.59;100.00;61776.25;4954304;28;20297;-82
2022/01/18 09:51:42;;;;;;;12.53;6.77;;;;;;;-141.59;100.00;61776.25;4943618;28;20217;-82
2022/01/18 09:54:09;;;;;;;12.23;6.37;;;;;;;-141.59;100.00;61776.25;4949240;28;20242;-84
2022/01/18 09:56:36;;;;;;;10.27;6.13;;;;;;;-141.59;100.00;61776.25;4946684;28;20336;-82
2022/01/18 09:59:06;;;;;;;12.97;6.80;;;;;;;-141.59;100.00;61776.25;4950573;28;20244;-82
2022/01/18 10:01:33;;;;;;;13.13;6.20;;;;;;;-141.59;100.00;61776.25;4936217;28;20252;-82
2022/01/18 10:04:18;;;;;;;11.37;5.50;;;;;;;-141.59;100.00;61776.25;4945288;28;20205;-82
2022/01/18 10:06:49;;;;;;;9.43;5.53;;;;;;;-141.59;100.00;61776.25;4945090;28;20238;-83
2022/01/18 10:09:19;;;;;;;10.53;6.07;;;;;;;-141.59;100.00;61776.25;4945218;28;20240;-82
2022/01/18 10:12:05;;;;;;;7.50;5.10;;;;;;;-141.59;100.00;61776.25;4960910;28;20246;-83
2022/01/18 10:14:34;;;;;;;14.20;5.30;;;;;;;-141.59;100.00;61776.25;4956432;28;20227;-82
2022/01/18 10:17:01;;;;;;;8.80;4.93;;;;;;;-141.59;100.00;61776.25;4952968;28;20222;-83
2022/01/18 10:19:32;;;;;;;7.80;4.63;;;;;;;-141.59;100.00;61776.25;4954057;28;20230;-82
2022/01/18 10:22:16;;;;;;;9.30;5.13;;;;;;;-141.59;100.00;61776.25;4953779;28;20225;-82
2022/01/18 10:24:44;;;;;;;7.53;4.53;;;;;;;-141.59;100.00;61776.25;4941913;29;20212;-82
2022/01/18 10:27:14;;;;;;;9.50;4.70;;;;;;;-141.59;100.00;61776.25;4947912;28;20202;-83
2022/01/18 10:29:43;;;;;;;7.30;4.50;;;;;;;-141.59;100.00;61776.25;4939739;28;20214;-82
2022/01/18 10:32:18;;;;;;;11.60;4.90;;;;;;;-141.59;100.00;61776.25;4948732;28;20245;-82
2022/01/18 10:37:34;;;;;;;9.27;4.73;;;;;;;-141.59;100.00;61776.25;4955396;28;20284;-84
2022/01/18 10:40:06;;;;;;;11.43;4.77;;;;;;;-141.59;100.00;61776.25;4945155;29;20285;-83
2022/01/18 10:42:41;;;;;;;7.83;3.90;;;;;;;-141.59;100.00;61776.25;4942632;28;20209;-83
2022/01/18 10:45:12;;;;;;;8.90;4.40;;;;;;;-141.59;100.00;61776.25;4946896;28;20212;-83
2022/01/18 10:47:49;;;;;;;6.90;4.10;;;;;;;-141.59;100.00;61776.25;4952164;28;20232;-83
2022/01/18 10:50:18;;;;;;;7.10;3.97;;;;;;;-141.59;100.00;61776.25;4940638;28;20356;-82
2022/01/18 10:52:47;;;;;;;6.50;4.50;;;;;;;-141.59;100.00;61776.25;4945337;29;20296;-83
2022/01/18 10:55:19;;;;;;;7.50;3.80;;;;;;;-141.59;100.00;61776.25;4945858;28;20312;-83
2022/01/18 10:57:47;;;;;;;6.33;4.00;;;;;;;-141.59;100.00;61776.25;4942838;28;20252;-84
2022/01/18 11:00:16;;;;;;;6.87;3.80;;;;;;;-141.59;100.00;61776.25;4943167;28;20218;-84
2022/01/18 11:02:44;;;;;;;6.23;4.30;;;;;;;-141.59;100.00;61776.25;4950731;28;20206;-85
2022/01/18 11:05:17;;;;;;;10.80;4.40;;;;;;;-141.59;100.00;61776.25;4944710;28;20285;-82
2022/01/18 11:07:46;;;;;;;6.03;4.30;;;;;;;-141.59;100.00;61776.25;4945427;28;20240;-82
2022/01/18 11:10:16;;;;;;;7.10;4.57;;;;;;;-141.59;100.00;61776.25;4947743;28;20213;-84
2022/01/18 11:12:51;;;;;;;9.07;4.70;;;;;;;-141.59;100.00;61776.25;4937392;28;20213;-83
2022/01/18 11:15:21;;;;;;;7.97;4.53;;;;;;;-141.59;100.00;61776.25;4940629;28;20284;-83
2022/01/18 11:17:57;;;;;;;9.93;4.10;;;;;;;-141.59;100.00;61776.25;4947105;28;20205;-83
2022/01/18 11:20:26;;;;;;;6.73;4.27;;;;;;;-141.59;100.00;61776.25;4942887;28;20225;-85
2022/01/18 11:22:55;;;;;;;8.17;4.70;;;;;;;-141.59;100.00;61776.25;4943559;28;20526;-83
2022/01/18 11:25:23;;;;;;;8.93;4.60;;;;;;;-141.59;100.00;61776.25;4957612;28;20300;-83
2022/01/18 11:27:52;;;;;;;6.87;4.30;;;;;;;-141.59;100.00;61776.25;4967640;28;20206;-83
2022/01/18 11:30:20;;;;;;;10.03;5.07;;;;;;;-141.59;100.00;61776.25;4951244;28;20211;-83
2022/01/18 11:32:51;;;;;;;8.80;5.57;;;;;;;-141.59;100.00;61776.25;4949633;28;20248;-84
2022/01/18 11:35:21;;;;;;;8.67;4.40;;;;;;;-141.59;100.00;61776.25;4936554;28;20209;-83
2022/01/18 11:38:10;;;;;;;6.60;4.20;;;;;;;-141.59;100.00;61776.25;4945761;28;20217;-84
2022/01/18 11:40:46;;;;;;;6.57;4.40;;;;;;;-141.59;100.00;61776.25;4944915;29;20213;-83
2022/01/18 11:43:14;;;;;;;22.03;5.57;;;;;;;-141.59;100.00;61776.25;4943479;29;20248;-83
2022/01/18 11:45:43;;;;;;;6.70;4.17;;;;;;;-141.59;100.00;61776.25;4960149;28;20207;-84
2022/01/18 11:48:17;;;;;;;14.47;4.83;;;;;;;-141.59;100.00;61776.25;4944340;28;20307;-84
2022/01/18 11:50:48;;;;;;;21.27;5.43;;;;;;;-141.59;100.00;61776.25;4946022;28;20208;-84
2022/01/18 11:53:25;;;;;;;7.87;4.77;;;;;;;-141.59;100.00;61776.25;4942050;28;20240;-84
2022/01/18 11:55:53;;;;;;;9.67;4.93;;;;;;;-141.59;100.00;61776.25;4945579;28;20315;-83
2022/01/18 11:58:21;;;;;;;11.80;5.10;;;;;;;-141.59;100.00;61776.25;4957180;28;20236;-84
2022/01/18 12:00:52;;;;;;;9.20;5.57;;;;;;;-141.59;100.00;61776.25;4949818;28;20220;-84